METAR Data
IDs: Format: Raw Decoded Include TAF

Data at: 1013 UTC 21 Apr 2021

PTSA 210550Z 04006KT 10SM BKN017TCU BKN130 OVC300 29/24 A2978 RMK TCU NW-E AND SW LAST